createdAt,value
2022-07-29T00:01:44.211Z,20.29
2022-07-29T00:04:12.438Z,20.21
2022-07-29T00:06:42.160Z,20.22
2022-07-29T00:09:09.816Z,20.16
2022-07-29T00:11:39.829Z,20.13
2022-07-29T00:14:08.398Z,20.12
2022-07-29T00:16:41.321Z,20.11
2022-07-29T00:19:09.045Z,20.03
2022-07-29T00:21:38.551Z,19.97
2022-07-29T00:24:07.135Z,19.97
2022-07-29T00:26:34.763Z,19.95
2022-07-29T00:29:32.368Z,19.95
2022-07-29T00:31:51.500Z,19.95
2022-07-29T00:34:37.804Z,19.87
2022-07-29T00:37:05.588Z,19.84
2022-07-29T00:39:35.743Z,19.83
2022-07-29T00:42:05.599Z,19.80
2022-07-29T00:44:38.224Z,19.77
2022-07-29T00:47:06.237Z,19.76
2022-07-29T00:49:34.322Z,19.75
2022-07-29T00:52:03.510Z,19.71
2022-07-29T00:54:31.429Z,19.58
2022-07-29T00:57:02.435Z,19.63
2022-07-29T00:59:34.747Z,19.63
2022-07-29T01:02:06.105Z,19.70
2022-07-29T01:04:34.237Z,19.65
2022-07-29T01:07:02.929Z,19.70
2022-07-29T01:09:42.810Z,19.72
2022-07-29T01:12:18.971Z,19.72
2022-07-29T01:14:47.858Z,19.64
2022-07-29T01:17:28.352Z,19.62
2022-07-29T01:20:14.372Z,19.57
2022-07-29T01:23:13.862Z,19.53
2022-07-29T01:25:53.160Z,19.43
2022-07-29T01:28:47.384Z,19.40
2022-07-29T01:31:25.029Z,19.45
2022-07-29T01:34:00.374Z,19.43
2022-07-29T01:36:40.290Z,19.39
2022-07-29T01:39:13.219Z,19.35
2022-07-29T01:41:47.038Z,19.29
2022-07-29T01:44:35.954Z,19.29
2022-07-29T01:47:08.411Z,19.27
2022-07-29T01:49:37.634Z,19.25
2022-07-29T01:52:08.970Z,19.20
2022-07-29T01:54:40.035Z,19.19
2022-07-29T01:57:08.468Z,19.08
2022-07-29T01:59:36.276Z,19.10
2022-07-29T02:02:04.698Z,19.05
2022-07-29T02:04:32.423Z,19.08
2022-07-29T02:07:03.441Z,19.10
2022-07-29T02:09:34.206Z,19.08
2022-07-29T02:12:02.457Z,19.10
2022-07-29T02:14:37.532Z,19.06
2022-07-29T02:17:05.624Z,19.09
2022-07-29T02:19:33.773Z,19.03
2022-07-29T02:22:01.594Z,19.06
2022-07-29T02:24:30.208Z,19.06
2022-07-29T02:26:58.203Z,19.07
2022-07-29T02:29:27.456Z,18.98
2022-07-29T02:31:55.385Z,18.97
2022-07-29T02:34:23.046Z,19.05
2022-07-29T02:36:51.214Z,18.97
2022-07-29T02:39:18.869Z,19.02
2022-07-29T02:41:52.271Z,19.03
2022-07-29T02:44:21.222Z,19.01
2022-07-29T02:47:05.280Z,19.10
2022-07-29T02:49:42.097Z,19.18
2022-07-29T02:52:41.126Z,19.16
2022-07-29T02:55:19.630Z,19.19
2022-07-29T02:57:54.335Z,19.23
2022-07-29T03:00:25.314Z,19.29
2022-07-29T03:02:57.814Z,19.45
2022-07-29T03:05:25.773Z,19.42
2022-07-29T03:08:13.283Z,19.45
2022-07-29T03:10:41.517Z,19.53
2022-07-29T03:13:09.498Z,19.66
2022-07-29T03:15:37.670Z,19.91
2022-07-29T03:18:07.874Z,20.00
2022-07-29T03:20:35.632Z,20.22
2022-07-29T03:23:03.407Z,20.15
2022-07-29T03:25:31.329Z,20.40
2022-07-29T03:27:58.995Z,20.32
2022-07-29T03:30:27.605Z,20.26
2022-07-29T03:32:56.576Z,20.36
2022-07-29T03:35:26.520Z,20.52
2022-07-29T03:37:55.245Z,20.54
2022-07-29T03:40:28.903Z,20.69
2022-07-29T03:42:56.595Z,20.83
2022-07-29T03:45:24.250Z,20.92
2022-07-29T03:48:01.307Z,21.72
2022-07-29T03:50:30.215Z,22.60
2022-07-29T03:53:17.743Z,23.07
2022-07-29T03:55:48.514Z,22.91
2022-07-29T03:58:16.748Z,23.15
2022-07-29T04:00:46.984Z,23.38
2022-07-29T04:03:15.779Z,23.66
2022-07-29T04:05:43.596Z,23.72
2022-07-29T04:08:12.236Z,24.27
2022-07-29T04:10:40.452Z,24.13
2022-07-29T04:13:08.511Z,24.47
2022-07-29T04:15:36.568Z,24.62
2022-07-29T04:18:04.684Z,24.90
2022-07-29T04:20:32.465Z,24.95
2022-07-29T04:23:00.109Z,25.01
2022-07-29T04:25:29.054Z,25.68
2022-07-29T04:28:02.530Z,25.73
2022-07-29T04:30:31.536Z,25.97
2022-07-29T04:33:02.008Z,26.42
2022-07-29T04:35:31.163Z,26.66
2022-07-29T04:38:06.933Z,26.67
2022-07-29T04:40:35.064Z,27.22
2022-07-29T04:43:06.334Z,27.34
2022-07-29T04:45:34.496Z,27.90
2022-07-29T04:48:02.245Z,27.82
2022-07-29T04:50:33.778Z,27.69
2022-07-29T04:53:01.473Z,27.03
2022-07-29T04:55:30.418Z,27.13
2022-07-29T04:57:58.639Z,27.06
2022-07-29T05:00:32.127Z,27.14
2022-07-29T05:03:01.581Z,27.47
2022-07-29T05:05:31.455Z,27.84
2022-07-29T05:07:59.105Z,27.20
2022-07-29T05:10:27.419Z,26.91
2022-07-29T05:12:55.851Z,26.80
2022-07-29T05:15:24.294Z,26.79
2022-07-29T05:17:52.186Z,27.52
2022-07-29T05:20:27.140Z,26.97
2022-07-29T05:22:58.821Z,26.94
2022-07-29T05:25:40.669Z,27.04
2022-07-29T05:28:12.454Z,28.26
2022-07-29T05:30:40.161Z,27.98
2022-07-29T05:33:08.134Z,28.00
2022-07-29T05:35:38.265Z,27.87
2022-07-29T05:38:06.232Z,27.52
2022-07-29T05:40:35.346Z,27.43
2022-07-29T05:43:03.613Z,27.43
2022-07-29T05:45:31.363Z,27.44
2022-07-29T05:47:59.004Z,27.83
2022-07-29T05:50:27.236Z,27.70
2022-07-29T05:52:57.279Z,26.98
2022-07-29T05:55:26.339Z,27.01
2022-07-29T05:57:54.328Z,26.65
2022-07-29T06:00:22.034Z,26.64
2022-07-29T06:02:51.108Z,26.24
2022-07-29T06:05:18.967Z,26.29
2022-07-29T06:07:50.980Z,26.14
2022-07-29T06:10:20.353Z,26.05
2022-07-29T06:12:51.639Z,25.80
2022-07-29T06:15:20.576Z,25.71
2022-07-29T06:17:59.159Z,25.58
2022-07-29T06:20:32.292Z,25.58
2022-07-29T06:23:05.600Z,25.48
2022-07-29T06:25:37.790Z,25.61
2022-07-29T06:28:05.704Z,25.72
2022-07-29T06:30:34.019Z,25.70
2022-07-29T06:33:03.095Z,25.60
2022-07-29T06:35:38.935Z,25.71
2022-07-29T06:38:25.070Z,25.82
2022-07-29T06:41:03.907Z,25.76
2022-07-29T06:43:51.731Z,25.88
2022-07-29T06:46:24.153Z,25.90
2022-07-29T06:48:53.103Z,25.81
2022-07-29T06:51:22.430Z,25.80
2022-07-29T06:53:58.222Z,25.93
2022-07-29T06:56:28.337Z,25.76
2022-07-29T06:58:56.054Z,25.90
2022-07-29T07:01:24.650Z,26.02
2022-07-29T07:03:52.336Z,26.15
2022-07-29T07:06:20.099Z,26.08
2022-07-29T07:08:49.137Z,26.01
2022-07-29T07:11:16.796Z,26.03
2022-07-29T07:13:44.454Z,25.97
2022-07-29T07:16:12.161Z,26.06
2022-07-29T07:18:43.590Z,26.22
2022-07-29T07:21:12.611Z,26.36
2022-07-29T07:23:47.816Z,26.44
2022-07-29T07:26:16.436Z,26.47
2022-07-29T07:28:44.712Z,26.39
2022-07-29T07:31:15.487Z,26.56
2022-07-29T07:33:43.430Z,26.57
2022-07-29T07:36:11.603Z,26.44
2022-07-29T07:38:42.125Z,26.39
2022-07-29T07:41:10.433Z,26.40
2022-07-29T07:43:39.048Z,26.58
2022-07-29T07:46:07.716Z,26.52
2022-07-29T07:48:37.445Z,26.78
2022-07-29T07:51:06.988Z,26.80
2022-07-29T07:53:37.645Z,26.84
2022-07-29T07:56:10.832Z,26.82
2022-07-29T07:58:48.145Z,26.88
2022-07-29T08:01:19.162Z,26.79
2022-07-29T08:03:48.664Z,26.92
2022-07-29T08:06:17.056Z,26.92
2022-07-29T08:08:46.785Z,26.90
2022-07-29T08:11:15.845Z,27.05
2022-07-29T08:13:44.255Z,27.14
2022-07-29T08:16:16.727Z,27.16
2022-07-29T08:18:45.306Z,27.14
2022-07-29T08:21:17.023Z,27.08
2022-07-29T08:24:00.706Z,27.04
2022-07-29T08:26:30.312Z,27.34
2022-07-29T08:28:58.086Z,27.34
2022-07-29T08:31:28.159Z,27.38
2022-07-29T08:33:57.397Z,27.39
2022-07-29T08:36:27.317Z,27.61
2022-07-29T08:38:55.280Z,27.52
2022-07-29T08:41:23.345Z,27.62
2022-07-29T08:43:52.246Z,27.48
2022-07-29T08:46:20.685Z,27.51
2022-07-29T08:48:51.730Z,27.40
2022-07-29T08:51:20.988Z,27.37
2022-07-29T08:53:51.682Z,27.65
2022-07-29T08:56:20.258Z,27.66
2022-07-29T08:58:51.921Z,27.96
2022-07-29T09:01:35.646Z,27.91
2022-07-29T09:04:08.981Z,27.91
2022-07-29T09:06:38.660Z,27.87
2022-07-29T09:09:08.460Z,28.07
2022-07-29T09:11:36.531Z,28.22
2022-07-29T09:14:07.760Z,28.02
2022-07-29T09:16:56.272Z,28.28
2022-07-29T09:19:36.987Z,28.20
2022-07-29T09:22:06.806Z,28.09
2022-07-29T09:24:35.419Z,28.01
2022-07-29T09:27:03.869Z,28.17
2022-07-29T09:29:36.145Z,28.13
2022-07-29T09:32:08.170Z,28.29
2022-07-29T09:34:37.314Z,28.22
2022-07-29T09:37:06.082Z,28.38
2022-07-29T09:39:39.171Z,28.48
2022-07-29T09:42:07.244Z,28.38
2022-07-29T09:44:49.606Z,28.33
2022-07-29T09:47:20.262Z,28.33
2022-07-29T09:49:54.634Z,28.50
2022-07-29T09:52:23.274Z,28.83
2022-07-29T09:54:55.575Z,28.86
2022-07-29T09:57:31.037Z,28.72
2022-07-29T10:00:09.114Z,28.48
2022-07-29T10:02:45.836Z,28.64
2022-07-29T10:05:27.343Z,28.76
2022-07-29T10:08:07.251Z,28.93
2022-07-29T10:10:38.387Z,28.94
2022-07-29T10:13:36.113Z,28.89
2022-07-29T10:16:04.388Z,28.85
2022-07-29T10:18:32.510Z,28.83
2022-07-29T10:21:03.269Z,29.02
2022-07-29T10:23:46.187Z,29.22
2022-07-29T10:26:16.000Z,29.10
2022-07-29T10:28:43.983Z,28.83
2022-07-29T10:31:46.339Z,28.58
2022-07-29T10:34:33.270Z,28.84
2022-07-29T10:37:45.938Z,28.80
2022-07-29T10:40:47.616Z,28.84
2022-07-29T10:43:29.734Z,29.03
2022-07-29T10:45:59.199Z,28.94
2022-07-29T10:48:28.612Z,29.09
2022-07-29T10:53:54.835Z,28.91
2022-07-29T10:56:30.288Z,29.07
2022-07-29T10:59:23.572Z,28.99
2022-07-29T11:02:02.743Z,28.99
2022-07-29T11:04:47.408Z,28.84
2022-07-29T11:07:18.714Z,29.04
2022-07-29T11:10:15.694Z,28.89
2022-07-29T11:12:44.469Z,28.86
2022-07-29T11:15:21.080Z,29.00
2022-07-29T11:17:55.171Z,29.03
2022-07-29T11:20:49.889Z,28.66
2022-07-29T11:23:19.604Z,28.66
2022-07-29T11:26:12.844Z,29.06
2022-07-29T11:28:55.730Z,29.01
2022-07-29T11:31:36.015Z,29.13
2022-07-29T11:34:34.811Z,29.07
2022-07-29T11:37:18.669Z,29.15
2022-07-29T11:40:01.844Z,29.03
2022-07-29T11:42:37.478Z,29.13
2022-07-29T11:45:44.412Z,29.20
2022-07-29T11:48:28.934Z,29.20
2022-07-29T11:50:52.014Z,29.19
2022-07-29T11:53:20.841Z,29.00
2022-07-29T11:55:52.114Z,28.97
2022-07-29T11:58:27.399Z,29.33
2022-07-29T12:00:56.421Z,29.46
2022-07-29T12:03:33.266Z,29.27
2022-07-29T12:06:18.370Z,29.19
2022-07-29T12:08:51.897Z,29.36
2022-07-29T12:11:22.464Z,29.38
2022-07-29T12:13:54.505Z,29.40
2022-07-29T12:16:38.849Z,29.55
2022-07-29T12:19:09.995Z,29.56
2022-07-29T12:21:53.712Z,29.68
2022-07-29T12:24:26.778Z,29.55
2022-07-29T12:27:00.127Z,29.70
2022-07-29T12:29:34.893Z,29.56
2022-07-29T12:32:05.909Z,29.74
2022-07-29T12:34:43.645Z,29.62
2022-07-29T12:37:12.320Z,29.70
2022-07-29T12:39:41.341Z,29.89
2022-07-29T12:42:18.464Z,29.87
2022-07-29T12:44:50.687Z,30.18
2022-07-29T12:47:20.572Z,30.21
2022-07-29T12:49:50.555Z,30.38
2022-07-29T12:52:33.611Z,30.59
2022-07-29T12:55:03.051Z,30.68
2022-07-29T12:57:31.417Z,30.61
2022-07-29T13:00:04.949Z,30.86
2022-07-29T13:02:35.869Z,30.91
2022-07-29T13:05:09.793Z,31.37
2022-07-29T13:07:55.804Z,31.43
2022-07-29T13:10:26.238Z,31.57
2022-07-29T13:13:11.627Z,31.61
2022-07-29T13:16:07.493Z,31.45
2022-07-29T13:18:37.542Z,32.00
2022-07-29T13:21:15.465Z,32.26
2022-07-29T13:23:47.024Z,32.36
2022-07-29T13:26:17.656Z,32.44
2022-07-29T13:28:45.529Z,32.21
2022-07-29T13:31:14.671Z,31.98
2022-07-29T13:33:42.730Z,32.44
2022-07-29T13:36:13.984Z,32.41
2022-07-29T13:38:43.621Z,32.40
2022-07-29T13:41:11.651Z,32.68
2022-07-29T13:43:40.490Z,32.31
2022-07-29T13:46:09.717Z,32.51
2022-07-29T13:48:38.308Z,32.98
2022-07-29T13:51:06.369Z,33.70
2022-07-29T13:53:34.470Z,33.00
2022-07-29T13:56:04.520Z,33.00
2022-07-29T13:58:34.745Z,32.55
2022-07-29T14:01:06.231Z,32.68
2022-07-29T14:03:34.487Z,32.20
2022-07-29T14:06:05.966Z,31.82
2022-07-29T14:08:35.170Z,32.19
2022-07-29T14:11:06.860Z,31.88
2022-07-29T14:13:36.656Z,32.10
2022-07-29T14:16:04.467Z,32.07
2022-07-29T14:18:36.293Z,32.03
2022-07-29T14:21:04.997Z,31.12
2022-07-29T14:23:39.124Z,30.88
2022-07-29T14:26:13.184Z,31.57
2022-07-29T14:28:45.139Z,31.67
2022-07-29T14:31:13.056Z,31.25
2022-07-29T14:33:41.556Z,31.23
2022-07-29T14:36:10.636Z,31.70
2022-07-29T14:38:40.075Z,31.82
2022-07-29T14:41:12.704Z,31.05
2022-07-29T14:43:40.988Z,30.86
2022-07-29T14:46:09.161Z,30.48
2022-07-29T14:48:37.160Z,30.23
2022-07-29T14:51:05.318Z,29.69
2022-07-29T14:53:33.266Z,30.20
2022-07-29T14:56:20.900Z,30.79
2022-07-29T14:58:51.906Z,31.13
2022-07-29T15:01:19.914Z,30.53
2022-07-29T15:03:47.902Z,30.25
2022-07-29T15:06:16.051Z,30.38
2022-07-29T15:08:44.931Z,29.85
2022-07-29T15:11:13.929Z,29.74
2022-07-29T15:13:41.695Z,29.38
2022-07-29T15:16:10.332Z,29.00
2022-07-29T15:18:39.481Z,28.51
2022-07-29T15:21:10.104Z,28.23
2022-07-29T15:23:41.442Z,27.99
2022-07-29T15:26:09.208Z,27.96
2022-07-29T15:28:39.938Z,27.80
2022-07-29T15:31:08.726Z,27.86
2022-07-29T15:33:36.592Z,27.71
2022-07-29T15:36:05.887Z,27.82
2022-07-29T15:38:34.098Z,28.45
2022-07-29T15:41:02.200Z,28.95
2022-07-29T15:43:29.910Z,29.16
2022-07-29T15:46:16.137Z,29.12
2022-07-29T15:48:45.151Z,29.09
2022-07-29T15:51:14.586Z,29.08
2022-07-29T15:53:42.417Z,29.22
2022-07-29T15:56:10.829Z,29.12
2022-07-29T15:58:38.489Z,29.05
2022-07-29T16:01:06.846Z,28.78
2022-07-29T16:03:34.965Z,28.18
2022-07-29T16:06:02.717Z,27.66
2022-07-29T16:08:31.094Z,27.30
2022-07-29T16:10:59.681Z,27.24
2022-07-29T16:13:28.957Z,27.17
2022-07-29T16:16:02.227Z,27.33
2022-07-29T16:18:32.981Z,27.66
2022-07-29T16:21:02.225Z,27.85
2022-07-29T16:23:31.159Z,27.83
2022-07-29T16:26:01.504Z,27.77
2022-07-29T16:28:32.795Z,27.80
2022-07-29T16:31:02.754Z,27.76
2022-07-29T16:33:54.937Z,27.83
2022-07-29T16:36:19.461Z,27.62
2022-07-29T16:38:47.627Z,27.68
2022-07-29T16:41:16.694Z,27.79
2022-07-29T16:43:47.230Z,27.94
2022-07-29T16:46:18.590Z,27.95
2022-07-29T16:48:47.918Z,27.40
2022-07-29T16:51:17.195Z,26.98
2022-07-29T16:53:46.014Z,26.48
2022-07-29T16:56:18.423Z,26.20
2022-07-29T16:58:46.349Z,26.00
2022-07-29T17:01:14.428Z,25.98
2022-07-29T17:04:03.257Z,25.76
2022-07-29T17:06:32.881Z,25.50
2022-07-29T17:09:02.034Z,25.30
2022-07-29T17:11:53.393Z,25.08
2022-07-29T17:14:24.099Z,24.82
2022-07-29T17:17:00.984Z,24.71
2022-07-29T17:19:31.524Z,24.59
2022-07-29T17:22:12.900Z,24.48
2022-07-29T17:24:48.454Z,24.44
2022-07-29T17:27:17.160Z,24.33
2022-07-29T17:29:45.768Z,24.20
2022-07-29T17:32:13.676Z,24.15
2022-07-29T17:34:42.263Z,24.02
2022-07-29T17:37:11.450Z,23.96
2022-07-29T17:39:41.488Z,23.89
2022-07-29T17:42:13.871Z,23.78
2022-07-29T17:44:43.565Z,23.66
2022-07-29T17:47:15.568Z,23.68
2022-07-29T17:49:45.548Z,23.58
2022-07-29T17:52:13.509Z,23.55
2022-07-29T17:54:41.269Z,23.45
2022-07-29T17:57:08.991Z,23.36
2022-07-29T17:59:36.979Z,23.31
2022-07-29T18:02:05.081Z,23.22
2022-07-29T18:04:37.236Z,23.08
2022-07-29T18:07:06.300Z,22.74
2022-07-29T18:09:34.012Z,22.51
2022-07-29T18:12:01.802Z,22.26
2022-07-29T18:14:29.824Z,22.00
2022-07-29T18:16:57.884Z,22.05
2022-07-29T18:19:25.885Z,22.07
2022-07-29T18:21:54.534Z,22.00
2022-07-29T18:24:25.825Z,21.94
2022-07-29T18:26:56.846Z,21.83
2022-07-29T18:29:25.084Z,21.65
2022-07-29T18:31:55.438Z,21.56
2022-07-29T18:34:23.317Z,21.61
2022-07-29T18:36:51.380Z,21.61
2022-07-29T18:39:20.644Z,21.61
2022-07-29T18:41:51.188Z,21.56
2022-07-29T18:44:22.951Z,21.47
2022-07-29T18:46:54.479Z,21.44
2022-07-29T18:49:22.757Z,21.35
2022-07-29T18:51:51.523Z,21.20
2022-07-29T18:54:19.640Z,20.96
2022-07-29T18:56:47.405Z,20.87
2022-07-29T18:59:20.800Z,20.80
2022-07-29T19:01:49.271Z,20.70
2022-07-29T19:04:17.515Z,20.71
2022-07-29T19:06:46.978Z,20.78
2022-07-29T19:09:14.849Z,20.85
2022-07-29T19:11:44.741Z,20.88
2022-07-29T19:14:12.468Z,20.91
2022-07-29T19:16:40.228Z,20.94
2022-07-29T19:19:08.502Z,20.93
2022-07-29T19:21:37.615Z,20.95
2022-07-29T19:24:09.263Z,20.92
2022-07-29T19:26:46.694Z,20.92
2022-07-29T19:29:15.334Z,20.90
2022-07-29T19:31:43.772Z,20.90
2022-07-29T19:34:13.203Z,20.88
2022-07-29T19:36:43.962Z,20.81
2022-07-29T19:39:11.763Z,20.79
2022-07-29T19:41:39.754Z,20.79
2022-07-29T19:44:09.095Z,20.78
2022-07-29T19:46:39.656Z,20.74
2022-07-29T19:49:07.871Z,20.69
2022-07-29T19:51:36.295Z,20.66
2022-07-29T19:54:04.246Z,20.60
2022-07-29T19:56:32.209Z,20.57
2022-07-29T19:59:00.895Z,20.50
2022-07-29T20:01:32.899Z,20.46
2022-07-29T20:04:00.993Z,20.36
2022-07-29T20:06:28.790Z,20.34
2022-07-29T20:09:00.667Z,20.29
2022-07-29T20:11:32.513Z,20.29
2022-07-29T20:14:05.495Z,20.29
2022-07-29T20:16:33.365Z,20.22
2022-07-29T20:19:03.749Z,20.24
2022-07-29T20:21:34.123Z,20.25
2022-07-29T20:24:08.849Z,20.18
2022-07-29T20:26:38.338Z,20.18
2022-07-29T20:29:06.102Z,20.24
2022-07-29T20:31:33.940Z,20.24
2022-07-29T20:34:02.160Z,20.24
2022-07-29T20:36:30.414Z,20.25
2022-07-29T20:39:00.164Z,20.20
2022-07-29T20:41:29.216Z,20.21
2022-07-29T20:43:58.024Z,20.17
2022-07-29T20:46:25.773Z,20.10
2022-07-29T20:48:54.146Z,20.08
2022-07-29T20:51:22.112Z,20.06
2022-07-29T20:53:49.880Z,20.05
2022-07-29T20:56:18.014Z,20.02
2022-07-29T20:58:48.333Z,19.95
2022-07-29T21:01:16.136Z,19.98
2022-07-29T21:03:44.103Z,19.96
2022-07-29T21:06:12.074Z,19.92
2022-07-29T21:08:39.833Z,19.89
2022-07-29T21:11:08.519Z,19.84
2022-07-29T21:13:41.163Z,19.80
2022-07-29T21:16:18.808Z,19.70
2022-07-29T21:18:47.027Z,19.64
2022-07-29T21:21:15.553Z,19.63
2022-07-29T21:23:43.717Z,19.61
2022-07-29T21:26:13.085Z,19.60
2022-07-29T21:28:44.059Z,19.46
2022-07-29T21:31:13.901Z,19.43
2022-07-29T21:33:42.640Z,19.44
2022-07-29T21:36:46.085Z,19.39
2022-07-29T21:39:01.096Z,19.34
2022-07-29T21:41:32.402Z,19.29
2022-07-29T21:44:01.278Z,19.26
2022-07-29T21:46:30.253Z,19.20
2022-07-29T21:48:58.404Z,19.17
2022-07-29T21:51:26.768Z,19.00
2022-07-29T21:53:54.442Z,18.95
2022-07-29T21:56:24.552Z,18.89
2022-07-29T21:58:55.933Z,18.87
2022-07-29T22:01:24.134Z,18.75
2022-07-29T22:03:52.391Z,18.67
2022-07-29T22:06:21.852Z,18.61
2022-07-29T22:08:50.270Z,18.54
2022-07-29T22:11:18.029Z,18.47
2022-07-29T22:13:48.341Z,18.39
2022-07-29T22:16:16.277Z,18.35
2022-07-29T22:18:47.036Z,18.33
2022-07-29T22:21:15.312Z,18.38
2022-07-29T22:23:43.417Z,18.29
2022-07-29T22:26:13.278Z,18.31
2022-07-29T22:28:42.286Z,18.31
2022-07-29T22:31:10.040Z,18.19
2022-07-29T22:33:39.555Z,18.09
2022-07-29T22:36:07.733Z,17.97
2022-07-29T22:38:37.465Z,17.66
2022-07-29T22:41:05.180Z,17.55
2022-07-29T22:43:33.067Z,17.50
2022-07-29T22:46:01.721Z,17.36
2022-07-29T22:48:29.791Z,17.26
2022-07-29T22:50:57.463Z,17.16
2022-07-29T22:53:25.140Z,16.99
2022-07-29T22:55:54.666Z,16.81
2022-07-29T22:58:22.573Z,16.78
2022-07-29T23:00:50.333Z,16.73
2022-07-29T23:03:21.416Z,16.66
2022-07-29T23:05:50.950Z,16.75
2022-07-29T23:08:20.160Z,16.69
2022-07-29T23:10:48.104Z,16.66
2022-07-29T23:13:15.753Z,16.64
2022-07-29T23:15:46.454Z,16.60
2022-07-29T23:18:17.444Z,16.49
2022-07-29T23:20:45.314Z,16.44
2022-07-29T23:23:15.268Z,16.36
2022-07-29T23:25:44.175Z,16.37
2022-07-29T23:28:13.395Z,16.31
2022-07-29T23:30:42.166Z,16.23
2022-07-29T23:33:09.953Z,16.21
2022-07-29T23:35:38.144Z,16.12
2022-07-29T23:38:07.640Z,16.10
2022-07-29T23:40:35.524Z,16.02
2022-07-29T23:43:03.576Z,16.01
2022-07-29T23:45:44.966Z,16.01
2022-07-29T23:48:16.763Z,16.02
2022-07-29T23:50:44.400Z,15.95
2022-07-29T23:53:12.441Z,15.95
2022-07-29T23:55:40.353Z,15.89
2022-07-29T23:58:08.751Z,15.92
